createdAt,value
2022-10-28T00:02:20.021Z,14.50
2022-10-28T00:07:21.702Z,13.60
2022-10-28T00:12:23.391Z,15.80
2022-10-28T00:17:25.070Z,12.30
2022-10-28T00:22:27.368Z,13.50
2022-10-28T00:27:29.860Z,13.90
2022-10-28T00:32:31.872Z,13.50
2022-10-28T00:37:33.505Z,13.40
2022-10-28T00:42:35.245Z,13.40
2022-10-28T00:47:52.499Z,13.40
2022-10-28T00:53:05.121Z,13.50
2022-10-28T00:58:09.039Z,14.00
2022-10-28T01:03:10.755Z,13.50
2022-10-28T01:08:13.605Z,13.40
2022-10-28T01:13:21.198Z,13.40
2022-10-28T01:18:35.313Z,13.30
2022-10-28T01:24:22.561Z,13.30
2022-10-28T01:29:49.056Z,13.50
2022-10-28T01:35:01.420Z,13.40
2022-10-28T01:40:20.324Z,13.40
2022-10-28T01:45:51.952Z,13.40
2022-10-28T01:51:00.447Z,13.30
2022-10-28T01:56:07.387Z,13.50
2022-10-28T02:01:11.338Z,13.50
2022-10-28T02:06:19.034Z,13.50
2022-10-28T02:11:35.962Z,13.50
2022-10-28T02:16:43.616Z,13.50
2022-10-28T02:21:58.866Z,13.50
2022-10-28T02:27:27.003Z,13.50
2022-10-28T02:32:32.466Z,13.30
2022-10-28T02:37:36.362Z,15.60
2022-10-28T02:42:45.505Z,13.10
2022-10-28T02:47:55.629Z,13.20
2022-10-28T02:53:00.734Z,13.20
2022-10-28T02:58:02.491Z,13.20
2022-10-28T03:03:04.399Z,13.10
2022-10-28T03:08:06.061Z,13.20
2022-10-28T03:13:07.747Z,13.60
2022-10-28T03:18:09.465Z,13.10
2022-10-28T03:23:11.263Z,13.10
2022-10-28T03:28:12.905Z,14.20
2022-10-28T03:33:14.859Z,13.80
2022-10-28T03:38:16.597Z,14.10
2022-10-28T03:43:18.651Z,13.10
2022-10-28T03:48:20.293Z,13.10
2022-10-28T03:53:25.120Z,13.20
2022-10-28T03:58:29.679Z,13.30
2022-10-28T04:03:31.426Z,13.10
2022-10-28T04:13:35.417Z,13.20
2022-10-28T04:18:37.216Z,13.20
2022-10-28T04:23:38.882Z,13.20
2022-10-28T04:28:40.501Z,13.40
2022-10-28T04:33:42.252Z,14.30
2022-10-28T04:38:44.021Z,13.30
2022-10-28T04:43:45.670Z,13.70
2022-10-28T04:48:47.776Z,14.30
2022-10-28T04:53:49.462Z,14.70
2022-10-28T04:58:51.258Z,14.00
2022-10-28T05:03:53.268Z,13.30
2022-10-28T05:08:55.244Z,13.20
2022-10-28T05:13:57.024Z,13.20
2022-10-28T05:18:58.907Z,14.00
2022-10-28T05:24:00.678Z,13.50
2022-10-28T05:29:02.323Z,13.50
2022-10-28T05:34:03.964Z,13.80
2022-10-28T05:39:05.671Z,13.40
2022-10-28T05:44:07.305Z,13.50
2022-10-28T05:49:10.235Z,13.40
2022-10-28T05:54:11.925Z,16.30
2022-10-28T05:59:13.550Z,13.60
2022-10-28T06:09:17.535Z,13.50
2022-10-28T06:14:17.676Z,13.50
2022-10-28T06:19:19.375Z,13.50
2022-10-28T06:24:21.039Z,13.50
2022-10-28T06:29:22.722Z,13.60
2022-10-28T06:34:24.613Z,13.40
2022-10-28T06:44:33.219Z,13.60
2022-10-28T06:49:36.376Z,14.10
2022-10-28T06:54:38.044Z,14.70
2022-10-28T06:59:39.785Z,13.50
2022-10-28T07:04:42.225Z,13.60
2022-10-28T07:09:44.995Z,13.70
2022-10-28T07:14:46.767Z,13.80
2022-10-28T07:19:48.451Z,13.90
2022-10-28T07:24:50.656Z,14.00
2022-10-28T07:29:52.287Z,14.10
2022-10-28T07:34:53.917Z,15.10
2022-10-28T07:44:57.812Z,14.20
2022-10-28T07:49:59.505Z,15.00
2022-10-28T07:55:01.684Z,15.00
2022-10-28T08:00:05.285Z,15.30
2022-10-28T08:05:07.290Z,15.30
2022-10-28T08:10:09.107Z,15.30
2022-10-28T08:15:10.885Z,15.30
2022-10-28T08:20:12.549Z,15.60
2022-10-28T08:25:14.276Z,15.60
2022-10-28T08:30:16.057Z,15.70
2022-10-28T08:35:17.696Z,15.60
2022-10-28T08:40:28.590Z,15.90
2022-10-28T08:45:49.606Z,16.10
2022-10-28T08:50:56.287Z,16.10
2022-10-28T08:56:08.108Z,16.00
2022-10-28T09:01:19.396Z,16.20
2022-10-28T09:06:21.549Z,17.00
2022-10-28T09:11:55.046Z,16.90
2022-10-28T09:17:07.148Z,17.10
2022-10-28T09:22:33.665Z,16.90
2022-10-28T09:28:06.377Z,17.10
2022-10-28T09:33:30.116Z,17.20
2022-10-28T09:38:35.060Z,17.10
2022-10-28T09:43:44.692Z,17.20
2022-10-28T09:48:49.892Z,15.60
2022-10-28T09:53:56.386Z,17.20
2022-10-28T09:59:00.850Z,17.30
2022-10-28T10:04:03.235Z,17.80
2022-10-28T10:09:05.055Z,18.20
2022-10-28T10:14:29.684Z,18.30
2022-10-28T10:20:03.005Z,18.30
2022-10-28T10:25:21.520Z,18.50
2022-10-28T10:30:38.031Z,18.80
2022-10-28T10:35:40.903Z,20.50
2022-10-28T10:40:51.219Z,20.40
2022-10-28T10:45:59.255Z,21.90
2022-10-28T10:51:06.793Z,23.10
2022-10-28T10:56:11.058Z,22.30
2022-10-28T11:01:20.543Z,21.70
2022-10-28T11:06:27.070Z,21.50
2022-10-28T11:11:39.748Z,21.40
2022-10-28T11:16:56.070Z,21.20
2022-10-28T11:22:32.424Z,21.00
2022-10-28T11:28:19.020Z,20.80
2022-10-28T11:33:51.889Z,21.40
2022-10-28T11:39:20.064Z,23.00
2022-10-28T11:44:27.764Z,23.30
2022-10-28T11:49:59.186Z,22.90
2022-10-28T11:55:12.828Z,23.20
2022-10-28T12:00:42.800Z,23.70
2022-10-28T12:06:00.807Z,23.60
2022-10-28T12:11:30.033Z,25.80
2022-10-28T12:16:44.365Z,24.90
2022-10-28T12:22:09.847Z,24.20
2022-10-28T12:27:28.189Z,23.40
2022-10-28T12:32:34.237Z,22.70
2022-10-28T12:37:51.572Z,22.50
2022-10-28T12:43:02.019Z,22.30
2022-10-28T12:48:13.494Z,22.70
2022-10-28T12:53:35.877Z,23.40
2022-10-28T12:59:05.987Z,25.40
2022-10-28T13:04:14.952Z,27.20
2022-10-28T13:09:36.304Z,30.00
2022-10-28T13:14:54.563Z,30.40
2022-10-28T13:20:34.074Z,27.40
2022-10-28T13:25:38.598Z,25.80
2022-10-28T13:30:53.049Z,27.40
2022-10-28T13:36:08.406Z,33.70
2022-10-28T13:41:25.642Z,34.90
2022-10-28T13:47:02.574Z,36.30
2022-10-28T13:52:07.037Z,37.90
2022-10-28T13:57:20.743Z,38.30
2022-10-28T14:02:40.501Z,37.90
2022-10-28T14:08:03.817Z,38.90
2022-10-28T14:13:18.216Z,37.70
2022-10-28T14:23:45.376Z,32.60
2022-10-28T14:28:51.982Z,28.30
2022-10-28T14:33:53.595Z,26.50
2022-10-28T14:39:04.392Z,25.10
2022-10-28T14:44:30.864Z,24.20
2022-10-28T14:49:36.283Z,23.50
2022-10-28T14:54:52.228Z,22.80
2022-10-28T14:59:55.456Z,22.30
2022-10-28T15:05:12.080Z,22.00
2022-10-28T15:10:26.931Z,21.20
2022-10-28T15:15:31.630Z,21.10
2022-10-28T15:20:35.518Z,21.00
2022-10-28T15:25:37.197Z,20.80
2022-10-28T15:30:46.042Z,20.60
2022-10-28T15:35:48.764Z,20.40
2022-10-28T15:40:50.480Z,20.10
2022-10-28T15:45:52.445Z,20.10
2022-10-28T15:51:17.000Z,19.90
2022-10-28T15:56:22.682Z,19.80
2022-10-28T16:01:39.997Z,19.50
2022-10-28T16:06:41.880Z,19.40
2022-10-28T16:11:50.048Z,19.10
2022-10-28T16:16:52.065Z,18.90
2022-10-28T16:21:53.787Z,18.70
2022-10-28T16:27:16.070Z,18.70
2022-10-28T16:32:24.858Z,18.60
2022-10-28T16:37:29.746Z,18.50
2022-10-28T16:42:31.585Z,18.40
2022-10-28T16:47:33.274Z,18.20
2022-10-28T16:52:35.357Z,18.00
2022-10-28T16:57:37.027Z,17.90
2022-10-28T17:02:38.891Z,17.90
2022-10-28T17:07:40.762Z,16.80
2022-10-28T17:12:42.521Z,18.00
2022-10-28T17:17:44.283Z,17.70
2022-10-28T17:22:46.445Z,17.60
2022-10-28T17:27:48.791Z,17.50
2022-10-28T17:32:52.180Z,17.50
2022-10-28T17:37:54.498Z,17.40
2022-10-28T17:42:58.363Z,17.30
2022-10-28T17:48:00.095Z,17.20
2022-10-28T17:53:01.763Z,16.90
2022-10-28T17:58:03.424Z,16.80
2022-10-28T18:03:06.259Z,16.80
2022-10-28T18:08:07.936Z,16.80
2022-10-28T18:13:09.566Z,16.60
2022-10-28T18:23:13.302Z,16.50
2022-10-28T18:28:16.456Z,16.40
2022-10-28T18:33:18.190Z,16.30
2022-10-28T18:38:19.860Z,16.30
2022-10-28T18:43:22.865Z,16.20
2022-10-28T18:48:24.542Z,16.10
2022-10-28T18:53:26.560Z,15.70
2022-10-28T18:58:28.250Z,15.90
2022-10-28T19:03:29.890Z,15.90
2022-10-28T19:08:31.652Z,15.70
2022-10-28T19:13:35.271Z,15.70
2022-10-28T19:18:38.267Z,15.90
2022-10-28T19:23:41.077Z,15.50
2022-10-28T19:28:45.166Z,15.70
2022-10-28T19:33:47.345Z,15.60
2022-10-28T19:38:50.295Z,15.60
2022-10-28T19:44:00.095Z,15.50
2022-10-28T19:49:05.106Z,15.50
2022-10-28T19:54:12.505Z,15.50
2022-10-28T19:59:14.459Z,15.30
2022-10-28T20:04:17.514Z,15.70
2022-10-28T20:09:19.263Z,15.20
2022-10-28T20:14:21.065Z,16.50
2022-10-28T20:19:22.822Z,15.10
2022-10-28T20:24:24.526Z,15.10
2022-10-28T20:29:26.250Z,15.10
2022-10-28T20:34:27.943Z,15.80
2022-10-28T20:39:29.814Z,15.00
2022-10-28T20:49:33.530Z,15.00
2022-10-28T20:54:35.299Z,15.00
2022-10-28T20:59:36.971Z,15.70
2022-10-28T21:04:38.680Z,14.80
2022-10-28T21:09:40.480Z,14.70
2022-10-28T21:14:42.141Z,14.60
2022-10-28T21:19:43.803Z,14.90
2022-10-28T21:24:45.650Z,14.60
2022-10-28T21:29:47.492Z,14.60
2022-10-28T21:34:49.257Z,14.50
2022-10-28T21:39:52.931Z,14.50
2022-10-28T21:44:56.054Z,14.40
2022-10-28T21:49:57.816Z,14.40
2022-10-28T21:55:00.841Z,14.30
2022-10-28T22:00:04.479Z,16.30
2022-10-28T22:05:06.324Z,14.20
2022-10-28T22:10:08.244Z,14.30
2022-10-28T22:15:10.215Z,14.20
2022-10-28T22:20:11.920Z,14.30
2022-10-28T22:25:13.600Z,14.30
2022-10-28T22:30:15.345Z,14.20
2022-10-28T22:35:17.042Z,14.20
2022-10-28T22:40:18.695Z,14.40
2022-10-28T22:45:20.345Z,14.30
2022-10-28T22:50:22.049Z,14.30
2022-10-28T23:00:25.859Z,14.20
2022-10-28T23:05:27.527Z,15.60
2022-10-28T23:10:29.660Z,14.10
2022-10-28T23:15:31.610Z,14.00
2022-10-28T23:20:35.749Z,13.50
2022-10-28T23:25:37.553Z,14.60
2022-10-28T23:30:39.240Z,13.90
2022-10-28T23:35:42.713Z,13.90
2022-10-28T23:40:44.422Z,13.90
2022-10-28T23:45:46.098Z,13.90
2022-10-28T23:50:48.104Z,13.90
2022-10-28T23:55:51.025Z,14.00
